首页
METAR-TAF:

METAR-TAF

机场 :

Wattisham, 英格兰

纬度: 52-07N, 经度: 000-58E, 海拔: 87米

当前天气观测

该预报发布于1小时和1分钟前的17:21 UTC
风速14节,风向西转西南
温度 9°C
湿度 71%
气压 1019 hPa
能见度10公里或以上
多云层高于3300英尺

METAR: EGUW 211721Z 24014KT 9999 BKN033 09/04 Q1019 NOSIG RMK BLU BLU

时间: 18:22 (18:22 UTC)

预报

该预报发布于2小时和4分钟前的16:18 UTC
预报有效从21日的 18点(UTC)到 21日的 21点(UTC)
风速20节,风向西南
能见度10公里或以上
多云层高于3000英尺
短暂存在
从 21日的 18点(UTC)到 21日的 21点(UTC)
风速22节,风向西转西南,有时为32节阵风
成为
从 21日的 19点(UTC)到 21日的 21点(UTC)
多云层高于2000英尺

TAF: EGUW 211618Z 2118/2121 23020KT 9999 BKN030 TEMPO 2118/2121 24022G32KT BECMG 2119/2121 BKN020

超过4000个机场的气象观测和天气预报(METAR&TAF报告)。

可查询的气象台以黄色和红色小点在地图上表示。

将鼠标移到小点上方,可查看气象台名称。

然后点击查看天气观测和预报。

如需切换地图:点击带黑十字的绿色按钮放大地图;点击带横线的绿色按钮缩小地图;或者点击绿色箭头查看邻近地区的地图。


METAR-TAF: